Time;durP1;ratioP1;P1;durP2;ratioP2;P2;SDS_P1;SDS_P2;PMS_P1;PMS_P2;Temp;Humidity;BMP_temperature;BMP_pressure;BME280_temperature;BME280_humidity;BME280_pressure;Samples;Min_cycle;Max_cycle;Signal;HPM_P1;HPM_P2
2022/07/30 00:01:40;;;;;;;12.32;5.30;;;;;;;19.66;70.86;101674.75;5096065;28;20070;-57
2022/07/30 00:04:08;;;;;;;12.55;5.50;;;;;;;19.66;70.97;101674.75;5090580;28;20047;-57
2022/07/30 00:06:38;;;;;;;10.57;5.60;;;;;;;19.65;71.39;101672.28;5095829;28;20051;-57
2022/07/30 00:09:06;;;;;;;16.02;6.38;;;;;;;19.62;71.99;101664.63;5094553;28;20410;-59
2022/07/30 00:11:34;;;;;;;11.27;5.10;;;;;;;19.56;72.18;101670.25;5095645;28;20206;-58
2022/07/30 00:14:02;;;;;;;13.52;5.60;;;;;;;19.52;72.43;101666.47;5089108;28;20040;-58
2022/07/30 00:16:29;;;;;;;14.07;5.65;;;;;;;19.47;72.74;101663.81;5108295;28;20036;-60
2022/07/30 00:18:57;;;;;;;13.18;5.55;;;;;;;19.46;73.54;101673.22;5095019;28;20405;-59
2022/07/30 00:21:25;;;;;;;11.52;5.95;;;;;;;19.43;73.63;101673.81;5095415;28;20449;-59
2022/07/30 00:24:07;;;;;;;12.27;5.93;;;;;;;19.42;74.01;101674.97;5088454;28;20041;-55
2022/07/30 00:26:35;;;;;;;12.93;5.60;;;;;;;19.44;73.97;101671.91;5093716;28;20529;-54
2022/07/30 00:29:03;;;;;;;11.45;5.70;;;;;;;19.41;74.20;101672.50;5095249;28;20071;-58
2022/07/30 00:31:31;;;;;;;12.07;5.50;;;;;;;19.34;74.65;101673.75;5094104;28;20128;-51
2022/07/30 00:33:59;;;;;;;11.85;6.15;;;;;;;19.30;75.69;101680.19;5092064;28;20044;-51
2022/07/30 00:36:27;;;;;;;14.55;5.47;;;;;;;19.26;75.88;101673.63;5082279;28;20071;-55
2022/07/30 00:38:55;;;;;;;14.18;5.95;;;;;;;19.23;76.08;101671.47;5088249;28;20599;-56
2022/07/30 00:41:22;;;;;;;13.38;5.60;;;;;;;19.20;76.66;101677.63;5094017;28;20044;-58
2022/07/30 00:43:50;;;;;;;17.25;5.78;;;;;;;19.16;76.95;101672.69;5095054;28;20039;-59
2022/07/30 00:46:18;;;;;;;16.27;5.63;;;;;;;19.15;77.00;101668.31;5089039;28;20047;-54
2022/07/30 00:48:46;;;;;;;12.63;5.95;;;;;;;19.14;77.31;101666.66;5079586;28;20521;-57
2022/07/30 00:51:13;;;;;;;14.48;6.38;;;;;;;19.14;77.49;101663.88;5087356;28;20048;-55
2022/07/30 00:53:41;;;;;;;15.48;6.22;;;;;;;19.10;77.59;101660.13;5093981;28;20036;-58
2022/07/30 00:56:09;;;;;;;10.70;5.70;;;;;;;19.09;77.84;101663.16;5091276;28;20050;-56
2022/07/30 00:58:36;;;;;;;18.70;6.20;;;;;;;19.10;77.98;101659.31;5083218;28;20043;-54
2022/07/30 01:01:04;;;;;;;14.05;6.28;;;;;;;19.08;78.30;101659.59;5094790;28;20093;-56
2022/07/30 01:03:32;;;;;;;18.02;6.00;;;;;;;19.07;78.50;101655.22;5094927;28;20055;-56
2022/07/30 01:05:59;;;;;;;16.30;6.10;;;;;;;19.06;78.64;101653.56;5087012;28;20051;-61
2022/07/30 01:08:27;;;;;;;13.38;6.45;;;;;;;19.04;79.12;101649.47;5085119;28;20044;-55
2022/07/30 01:10:54;;;;;;;15.13;6.30;;;;;;;19.04;79.03;101655.78;5089687;28;20063;-57
2022/07/30 01:13:22;;;;;;;11.27;5.97;;;;;;;19.04;79.08;101663.28;5075558;28;20518;-57
2022/07/30 01:15:50;;;;;;;15.98;5.85;;;;;;;19.04;79.08;101658.56;5105177;28;20529;-54
2022/07/30 01:18:18;;;;;;;11.68;5.97;;;;;;;19.04;79.06;101661.31;5065928;28;20042;-54
2022/07/30 01:20:56;;;;;;;12.13;6.60;;;;;;;19.02;79.01;101666.31;5093106;28;20521;-58
2022/07/30 01:23:38;;;;;;;13.23;6.30;;;;;;;18.99;78.94;101661.41;5082082;28;20037;-58
2022/07/30 01:26:13;;;;;;;14.45;6.43;;;;;;;18.94;79.77;101656.00;5088886;28;20123;-60
2022/07/30 01:28:45;;;;;;;14.70;5.80;;;;;;;18.92;79.76;101655.47;5077131;28;20036;-55
2022/07/30 01:31:13;;;;;;;12.20;6.15;;;;;;;18.89;80.13;101656.09;5074169;28;20395;-57
2022/07/30 01:33:44;;;;;;;14.00;6.25;;;;;;;18.87;80.40;101648.09;5077252;28;20032;-59
2022/07/30 01:36:15;;;;;;;14.85;6.50;;;;;;;18.84;80.80;101647.91;5091226;28;20044;-57
2022/07/30 01:38:46;;;;;;;14.30;6.50;;;;;;;18.82;81.20;101656.47;5075486;28;20068;-57
2022/07/30 01:41:15;;;;;;;14.20;6.63;;;;;;;18.85;81.39;101652.28;5091199;28;20449;-59
2022/07/30 01:43:44;;;;;;;15.75;6.30;;;;;;;18.86;81.04;101657.53;5078652;28;20123;-58
2022/07/30 01:46:12;;;;;;;15.77;6.70;;;;;;;18.84;81.17;101656.19;5064480;28;20039;-59
2022/07/30 01:48:42;;;;;;;15.05;6.72;;;;;;;18.83;81.45;101657.28;5067152;28;20040;-57
2022/07/30 01:51:12;;;;;;;14.20;6.18;;;;;;;18.78;81.67;101658.19;5091388;28;20502;-59
2022/07/30 01:53:44;;;;;;;13.13;6.15;;;;;;;18.76;81.83;101657.72;5057047;28;20040;-58
2022/07/30 01:56:14;;;;;;;14.48;6.22;;;;;;;18.74;81.89;101648.88;5091830;28;20040;-57
2022/07/30 01:58:44;;;;;;;13.32;6.88;;;;;;;18.73;82.06;101650.78;5087950;28;20033;-59
2022/07/30 02:01:20;;;;;;;12.93;6.38;;;;;;;18.69;82.51;101657.25;5065955;28;20048;-58
2022/07/30 02:03:48;;;;;;;10.85;5.93;;;;;;;18.65;82.47;101662.53;5065557;28;20490;-58
2022/07/30 02:06:29;;;;;;;11.35;5.90;;;;;;;18.60;82.84;101659.88;5092467;28;20052;-56
2022/07/30 02:09:00;;;;;;;10.13;5.82;;;;;;;18.59;83.15;101661.00;5072326;28;20044;-58
2022/07/30 02:14:37;;;;;;;14.00;6.32;;;;;;;18.61;83.23;101660.69;5074187;28;20457;-55
2022/07/30 02:17:07;;;;;;;13.20;5.80;;;;;;;18.62;83.12;101665.09;5087155;28;20056;-58
2022/07/30 02:19:48;;;;;;;14.48;5.72;;;;;;;18.61;83.34;101666.19;5085202;28;20043;-55
2022/07/30 02:22:16;;;;;;;13.20;5.50;;;;;;;18.58;83.43;101675.91;5072188;28;20059;-56
2022/07/30 02:24:45;;;;;;;13.90;5.68;;;;;;;18.54;83.73;101663.81;5084496;28;20383;-53
2022/07/30 02:27:21;;;;;;;13.30;6.47;;;;;;;18.52;83.83;101663.34;5086075;28;20043;-59
2022/07/30 02:29:52;;;;;;;14.48;5.75;;;;;;;18.50;83.83;101660.06;5085076;28;20040;-57
2022/07/30 02:32:23;;;;;;;16.77;6.13;;;;;;;18.49;83.78;101661.16;5066279;28;20040;-58
2022/07/30 02:34:58;;;;;;;12.25;5.63;;;;;;;18.42;84.31;101663.47;5079288;28;20063;-57
2022/07/30 02:37:28;;;;;;;14.18;5.75;;;;;;;18.41;84.39;101667.38;5062395;28;20376;-58
2022/07/30 02:40:14;;;;;;;12.93;5.97;;;;;;;18.40;84.54;101669.31;5082575;28;20081;-59
2022/07/30 02:42:45;;;;;;;10.80;5.55;;;;;;;18.38;84.63;101673.50;5101101;28;20119;-58
2022/07/30 02:45:18;;;;;;;11.80;5.55;;;;;;;18.38;84.57;101673.50;5072932;28;20040;-59
2022/07/30 02:47:50;;;;;;;10.85;6.22;;;;;;;18.35;84.85;101674.06;5071910;28;20056;-53
2022/07/30 02:50:19;;;;;;;15.40;6.32;;;;;;;18.33;84.87;101660.59;5067889;28;20544;-60
2022/07/30 02:52:47;;;;;;;11.52;6.18;;;;;;;18.31;85.10;101663.63;5087884;28;20042;-56
2022/07/30 02:55:17;;;;;;;14.63;6.57;;;;;;;18.29;85.12;101663.13;5072623;28;20033;-58
2022/07/30 02:57:46;;;;;;;14.18;6.57;;;;;;;18.26;85.21;101666.47;5073711;28;20046;-58
2022/07/30 03:00:14;;;;;;;13.18;6.65;;;;;;;18.25;85.22;101661.25;5085882;28;20044;-60
2022/07/30 03:02:44;;;;;;;12.57;6.38;;;;;;;18.25;85.06;101670.34;5091977;28;20040;-61
2022/07/30 03:05:14;;;;;;;14.73;7.40;;;;;;;18.24;85.02;101668.72;5086910;28;20037;-60
2022/07/30 03:07:42;;;;;;;15.98;7.50;;;;;;;18.23;85.08;101674.53;5072983;28;20044;-57
2022/07/30 03:10:11;;;;;;;20.40;7.22;;;;;;;18.21;85.31;101674.84;5071195;28;20060;-60
2022/07/30 03:12:43;;;;;;;17.85;7.68;;;;;;;18.20;85.26;101673.19;5075233;28;20119;-59
2022/07/30 03:15:12;;;;;;;16.98;7.10;;;;;;;18.17;85.27;101684.81;5091049;28;20036;-57
2022/07/30 03:17:43;;;;;;;20.08;7.90;;;;;;;18.14;85.32;101668.06;5071374;28;20052;-58
2022/07/30 03:20:13;;;;;;;13.48;7.13;;;;;;;18.12;85.65;101676.63;5091869;28;20048;-60
2022/07/30 03:22:47;;;;;;;15.77;8.00;;;;;;;18.11;85.69;101680.47;5090896;28;20047;-61
2022/07/30 03:25:18;;;;;;;14.98;7.30;;;;;;;18.10;85.42;101678.84;5091567;28;20494;-60
2022/07/30 03:27:46;;;;;;;16.13;8.15;;;;;;;18.07;85.71;101684.97;5088255;28;20503;-60
2022/07/30 03:30:14;;;;;;;17.50;7.63;;;;;;;18.06;85.58;101686.06;5080148;28;20126;-58
2022/07/30 03:32:42;;;;;;;20.48;8.13;;;;;;;18.03;85.53;101678.41;5043862;28;20480;-59
2022/07/30 03:35:11;;;;;;;18.63;8.27;;;;;;;18.00;85.89;101681.75;5075065;28;20390;-60
2022/07/30 03:37:46;;;;;;;17.27;8.30;;;;;;;17.97;85.91;101679.63;5088175;28;20043;-60
2022/07/30 03:40:14;;;;;;;14.50;7.70;;;;;;;17.95;86.04;101679.09;5075130;28;20091;-56
2022/07/30 03:42:42;;;;;;;14.63;7.68;;;;;;;17.92;85.71;101680.50;5071552;28;20382;-60
2022/07/30 03:45:12;;;;;;;13.57;7.50;;;;;;;17.90;85.81;101679.97;5061639;28;20070;-57
2022/07/30 03:47:41;;;;;;;18.08;8.35;;;;;;;17.86;86.02;101679.72;5075329;28;20059;-57
2022/07/30 03:50:14;;;;;;;16.38;7.63;;;;;;;17.85;86.21;101677.28;5078214;28;20071;-56
2022/07/30 03:52:42;;;;;;;18.23;8.38;;;;;;;17.86;86.03;101676.16;5091916;28;20036;-58
2022/07/30 03:55:15;;;;;;;23.40;7.80;;;;;;;17.83;86.17;101674.00;5093466;28;20525;-59
2022/07/30 03:57:45;;;;;;;12.70;8.15;;;;;;;17.80;86.33;101680.94;5090846;28;20047;-59
2022/07/30 04:00:14;;;;;;;15.27;7.63;;;;;;;17.81;86.20;101679.00;5094037;28;20032;-61
2022/07/30 04:02:48;;;;;;;15.45;8.75;;;;;;;17.81;86.24;101685.31;5093407;28;20047;-57
2022/07/30 04:05:44;;;;;;;15.18;7.80;;;;;;;17.81;85.88;101681.75;5086358;28;20480;-55
2022/07/30 04:08:12;;;;;;;14.77;8.50;;;;;;;17.79;85.96;101687.50;5072789;28;20087;-55
2022/07/30 04:10:40;;;;;;;16.88;8.82;;;;;;;17.73;86.15;101680.44;5093506;28;20143;-57
2022/07/30 04:13:42;;;;;;;18.88;8.98;;;;;;;17.68;86.59;101691.53;5090109;28;20094;-57
2022/07/30 04:16:13;;;;;;;15.43;9.18;;;;;;;17.65;86.73;101689.34;5081886;28;20505;-57
2022/07/30 04:19:05;;;;;;;17.45;8.82;;;;;;;17.61;86.80;101693.81;5065035;28;20398;-59
2022/07/30 04:21:33;;;;;;;20.63;9.13;;;;;;;17.60;86.97;101704.00;5094597;28;20046;-60
2022/07/30 04:24:01;;;;;;;18.10;9.30;;;;;;;17.61;86.97;101704.84;5092971;28;20076;-58
2022/07/30 04:26:34;;;;;;;16.40;9.48;;;;;;;17.59;86.84;101707.06;5083570;28;20418;-54
2022/07/30 04:29:05;;;;;;;15.15;9.15;;;;;;;17.59;86.84;101707.06;5062680;28;20497;-56
2022/07/30 04:31:34;;;;;;;16.52;9.57;;;;;;;17.55;87.01;101709.59;5089369;28;20073;-59
2022/07/30 04:34:49;;;;;;;16.65;9.65;;;;;;;17.54;87.24;101718.16;5000984;28;20050;-59
2022/07/30 04:37:30;;;;;;;17.30;9.57;;;;;;;17.55;87.21;101722.53;5063786;28;20191;-57
2022/07/30 04:39:58;;;;;;;14.68;8.32;;;;;;;17.56;86.81;101718.69;5088001;28;20482;-58
2022/07/30 04:42:29;;;;;;;18.27;9.13;;;;;;;17.55;86.91;101723.34;5094417;28;20052;-55
2022/07/30 04:45:04;;;;;;;14.68;9.45;;;;;;;17.58;86.99;101721.94;5094034;28;20044;-54
2022/07/30 04:47:52;;;;;;;13.75;8.48;;;;;;;17.58;86.79;101722.78;5088750;28;20043;-52
2022/07/30 04:50:26;;;;;;;19.40;11.05;;;;;;;17.59;87.04;101723.59;5095154;28;20098;-55
2022/07/30 04:52:56;;;;;;;18.75;10.57;;;;;;;17.58;86.89;101731.06;5073850;28;20048;-54
2022/07/30 04:55:29;;;;;;;16.42;9.95;;;;;;;17.56;87.49;101726.97;5077581;28;20047;-51
2022/07/30 04:57:57;;;;;;;12.98;8.63;;;;;;;17.56;87.37;101735.22;5090187;28;20042;-52
2022/07/30 05:00:27;;;;;;;15.55;9.38;;;;;;;17.56;87.49;101735.22;5077020;28;20044;-54
2022/07/30 05:02:59;;;;;;;16.60;10.25;;;;;;;17.58;87.22;101732.97;5073675;28;20064;-55
2022/07/30 05:05:31;;;;;;;18.60;10.23;;;;;;;17.58;87.29;101744.00;4372806;28;10000736;-55
2022/07/30 05:07:59;;;;;;;14.05;8.80;;;;;;;17.44;88.08;101741.13;5069542;28;20086;-52
2022/07/30 05:10:27;;;;;;;13.20;9.50;;;;;;;17.42;88.61;101740.59;5069271;28;20859;-57
2022/07/30 05:12:57;;;;;;;16.15;9.43;;;;;;;17.44;88.48;101746.66;5090500;28;20123;-54
2022/07/30 05:15:24;;;;;;;14.43;9.95;;;;;;;17.42;88.57;101746.94;5089372;28;20044;-54
2022/07/30 05:18:06;;;;;;;21.13;11.27;;;;;;;17.39;89.06;101750.28;5085743;28;20116;-52
2022/07/30 05:20:37;;;;;;;19.75;11.23;;;;;;;17.39;89.44;101753.03;5087967;28;20044;-55
2022/07/30 05:23:12;;;;;;;20.25;11.00;;;;;;;17.36;89.88;101759.09;5089300;28;20040;-57
2022/07/30 05:25:42;;;;;;;17.20;10.82;;;;;;;17.34;89.52;101752.25;5089782;28;20080;-51
2022/07/30 05:28:33;;;;;;;19.73;10.68;;;;;;;17.32;90.13;101757.22;5087255;28;20126;-56
2022/07/30 05:31:06;;;;;;;16.70;10.70;;;;;;;17.32;90.06;101755.31;5088311;28;20047;-51
2022/07/30 05:33:36;;;;;;;18.35;10.57;;;;;;;17.30;90.70;101764.97;5085382;28;20044;-51
2022/07/30 05:36:11;;;;;;;18.73;11.27;;;;;;;17.28;91.09;101762.50;5088980;28;20797;-52
2022/07/30 05:38:40;;;;;;;16.65;11.65;;;;;;;17.26;91.23;101759.22;5070230;28;20048;-53
2022/07/30 05:41:28;;;;;;;16.17;10.00;;;;;;;17.28;91.59;101754.25;5090660;28;20515;-56
2022/07/30 05:44:09;;;;;;;23.35;10.95;;;;;;;17.32;91.50;101752.56;5089043;28;20656;-54
2022/07/30 05:46:37;;;;;;;17.52;10.45;;;;;;;17.35;91.37;101762.16;5087122;28;20154;-52
2022/07/30 05:49:05;;;;;;;16.70;9.40;;;;;;;17.37;91.45;101763.50;5077143;28;20036;-56
2022/07/30 05:51:33;;;;;;;17.38;9.82;;;;;;;17.38;91.59;101762.38;5064891;28;20556;-54
2022/07/30 05:54:01;;;;;;;18.95;8.80;;;;;;;17.45;91.51;101768.38;5082348;28;20090;-55
2022/07/30 05:56:43;;;;;;;15.07;8.68;;;;;;;17.53;91.31;101766.09;5080460;28;20044;-56
2022/07/30 05:59:14;;;;;;;18.30;10.18;;;;;;;17.55;91.37;101766.63;5087488;28;20671;-55
2022/07/30 06:02:01;;;;;;;14.82;10.38;;;;;;;17.53;91.75;101757.84;5079989;28;20127;-55
2022/07/30 06:04:48;;;;;;;17.60;9.23;;;;;;;17.54;92.33;101767.75;5089647;28;20040;-55
2022/07/30 06:07:16;;;;;;;18.85;10.13;;;;;;;17.46;92.94;101764.53;5077924;28;20050;-51
2022/07/30 06:09:44;;;;;;;16.45;9.82;;;;;;;17.42;93.47;101768.97;5092431;28;20036;-54
2022/07/30 06:12:13;;;;;;;12.98;8.77;;;;;;;17.46;93.36;101772.78;5084153;28;20035;-52
2022/07/30 06:14:41;;;;;;;15.02;8.43;;;;;;;17.57;92.90;101775.44;5092304;28;20067;-54
2022/07/30 06:17:13;;;;;;;11.88;6.35;;;;;;;17.64;92.30;101778.66;5081950;28;20051;-54
2022/07/30 06:19:59;;;;;;;16.05;8.02;;;;;;;17.72;91.88;101788.22;5092418;28;20040;-54
2022/07/30 06:22:30;;;;;;;16.10;8.77;;;;;;;17.79;91.59;101788.69;5065212;28;20036;-52
2022/07/30 06:25:05;;;;;;;17.83;9.25;;;;;;;17.81;91.69;101786.50;5083011;28;20044;-54
2022/07/30 06:27:35;;;;;;;15.35;8.50;;;;;;;17.84;91.53;101785.91;5091224;28;20036;-50
2022/07/30 06:30:08;;;;;;;16.17;8.75;;;;;;;17.86;91.75;101790.00;5089202;28;20399;-52
2022/07/30 06:32:36;;;;;;;17.75;9.10;;;;;;;17.84;91.45;101785.91;5090462;28;20089;-57
2022/07/30 06:35:05;;;;;;;17.40;8.52;;;;;;;17.82;91.50;101791.72;5091783;28;20564;-57
2022/07/30 06:37:33;;;;;;;16.20;8.57;;;;;;;17.81;91.16;101794.78;5090371;28;20101;-52
2022/07/30 06:40:24;;;;;;;17.48;9.38;;;;;;;17.83;91.12;101798.06;5082218;28;20036;-55
2022/07/30 06:43:13;;;;;;;19.92;8.73;;;;;;;17.85;91.40;101798.59;5079294;28;20466;-52
2022/07/30 06:45:50;;;;;;;17.40;9.18;;;;;;;17.85;91.75;101804.09;5091267;28;20040;-57
2022/07/30 06:48:32;;;;;;;17.98;8.75;;;;;;;17.75;91.86;101799.50;5079877;28;20110;-53
2022/07/30 06:51:03;;;;;;;16.05;9.07;;;;;;;17.69;92.88;101806.16;5086106;28;20123;-54
2022/07/30 06:53:32;;;;;;;16.00;7.93;;;;;;;17.67;93.20;101803.69;5073132;28;20036;-57
2022/07/30 06:56:12;;;;;;;17.70;8.73;;;;;;;17.72;93.43;101800.06;5093053;28;20040;-54
2022/07/30 06:58:48;;;;;;;18.25;8.15;;;;;;;17.70;93.50;101796.78;5074291;28;20036;-55
2022/07/30 07:01:34;;;;;;;18.05;8.77;;;;;;;17.76;93.24;101795.63;5088243;28;20083;-53
2022/07/30 07:04:02;;;;;;;12.90;7.15;;;;;;;17.78;92.91;101798.91;5091397;28;20036;-52
2022/07/30 07:06:30;;;;;;;19.02;7.43;;;;;;;17.81;92.37;101797.53;5091841;28;20535;-52
2022/07/30 07:08:59;;;;;;;14.35;6.38;;;;;;;17.85;92.01;101798.59;5085390;28;20035;-52
2022/07/30 07:11:38;;;;;;;13.20;7.85;;;;;;;17.87;91.43;101799.94;5062808;28;20056;-53
2022/07/30 07:14:09;;;;;;;13.60;6.65;;;;;;;17.79;89.07;101799.72;5093276;28;20486;-55
2022/07/30 07:16:37;;;;;;;15.40;5.78;;;;;;;17.78;88.64;101796.16;5095546;28;20055;-53
2022/07/30 07:19:25;;;;;;;13.05;5.68;;;;;;;17.78;87.68;101793.41;5058054;28;20040;-51
2022/07/30 07:22:13;;;;;;;12.02;5.15;;;;;;;17.83;86.79;101811.84;5094685;28;20055;-51
2022/07/30 07:24:43;;;;;;;13.88;6.05;;;;;;;17.86;86.75;101809.31;5089420;28;20039;-54
2022/07/30 07:27:16;;;;;;;11.23;5.88;;;;;;;17.92;86.13;101809.25;5093770;28;20446;-55
2022/07/30 07:29:47;;;;;;;16.30;5.75;;;;;;;17.95;85.58;101809.50;5095478;28;20054;-53
2022/07/30 07:32:33;;;;;;;11.70;5.72;;;;;;;17.92;84.81;101806.50;5094338;28;20123;-52
2022/07/30 07:35:02;;;;;;;13.15;5.40;;;;;;;17.97;84.41;101810.03;5095286;28;20432;-53
2022/07/30 07:37:31;;;;;;;14.15;5.28;;;;;;;18.00;83.76;101814.94;5094400;28;20054;-52
2022/07/30 07:39:59;;;;;;;12.75;5.50;;;;;;;18.01;83.60;101804.72;5093760;28;20485;-49
2022/07/30 07:42:29;;;;;;;14.40;6.18;;;;;;;18.03;82.68;101806.06;5095184;28;20044;-53
2022/07/30 07:44:57;;;;;;;12.45;4.60;;;;;;;18.06;82.11;101801.91;5095064;28;20389;-52
2022/07/30 07:47:25;;;;;;;11.38;4.90;;;;;;;18.13;82.42;101809.84;5087471;28;20074;-52
2022/07/30 07:50:07;;;;;;;9.55;5.13;;;;;;;18.19;80.49;101806.72;5079560;28;20119;-53
2022/07/30 07:52:35;;;;;;;11.27;5.40;;;;;;;18.19;80.52;101809.47;5089668;28;20129;-53
2022/07/30 07:55:03;;;;;;;20.90;5.60;;;;;;;18.16;81.48;101810.09;5076705;28;20124;-53
2022/07/30 07:57:44;;;;;;;10.95;4.82;;;;;;;18.18;80.78;101805.06;5087764;28;20094;-51
2022/07/30 08:00:16;;;;;;;9.80;3.90;;;;;;;18.15;79.07;101808.41;5074670;28;20051;-55
2022/07/30 08:02:47;;;;;;;12.52;4.57;;;;;;;18.18;80.43;101807.81;5096034;28;20044;-54
2022/07/30 08:05:16;;;;;;;13.30;4.72;;;;;;;18.20;79.48;101802.84;5094399;28;20040;-53
2022/07/30 08:07:53;;;;;;;8.50;3.85;;;;;;;18.21;79.21;101801.72;5088648;28;20072;-52
2022/07/30 08:10:39;;;;;;;10.15;3.80;;;;;;;18.25;78.87;101797.25;5093156;28;20048;-51
2022/07/30 08:13:29;;;;;;;11.82;4.20;;;;;;;18.28;77.23;101807.72;5094765;28;20040;-49
2022/07/30 08:16:36;;;;;;;12.32;4.32;;;;;;;18.30;76.72;101799.13;5086810;28;20044;-49
2022/07/30 08:19:19;;;;;;;10.48;4.03;;;;;;;18.33;75.88;101803.22;5094298;28;20111;-52
2022/07/30 08:21:58;;;;;;;9.63;3.53;;;;;;;18.37;75.67;101804.28;5077046;28;20506;-52
2022/07/30 08:24:29;;;;;;;9.90;3.53;;;;;;;18.40;74.94;101792.63;5093185;28;20037;-51
2022/07/30 08:26:57;;;;;;;10.20;3.83;;;;;;;18.46;71.65;101803.31;5093141;28;20055;-49
2022/07/30 08:29:25;;;;;;;9.68;3.30;;;;;;;18.47;72.93;101801.38;5092135;28;20085;-51
2022/07/30 08:31:53;;;;;;;7.38;3.55;;;;;;;18.53;71.63;101811.22;5093701;28;20517;-47
2022/07/30 08:34:23;;;;;;;10.10;3.30;;;;;;;18.58;70.79;101810.34;5093994;28;20040;-52
2022/07/30 08:36:54;;;;;;;9.70;3.92;;;;;;;18.57;70.67;101804.00;5091060;28;20044;-52
2022/07/30 08:39:22;;;;;;;9.90;3.60;;;;;;;18.61;71.32;101798.69;5091454;28;20082;-50
2022/07/30 08:41:50;;;;;;;6.78;3.10;;;;;;;18.67;71.78;101809.38;5084156;28;20480;-47
2022/07/30 08:44:20;;;;;;;11.75;3.97;;;;;;;18.71;72.51;101804.91;5080909;28;20052;-49
2022/07/30 08:46:52;;;;;;;8.18;3.47;;;;;;;18.73;73.02;101801.81;5093099;28;20548;-52
2022/07/30 08:49:44;;;;;;;17.67;4.25;;;;;;;18.78;72.91;101809.25;5049438;28;20056;-51
2022/07/30 08:52:14;;;;;;;8.88;3.25;;;;;;;18.77;69.43;101811.19;5091772;28;20382;-54
2022/07/30 08:54:46;;;;;;;9.93;4.00;;;;;;;18.81;69.68;101808.63;5092831;28;20102;-50
2022/07/30 08:57:14;;;;;;;8.23;3.05;;;;;;;18.83;69.44;101800.88;5090860;28;20108;-54
2022/07/30 08:59:42;;;;;;;7.20;3.80;;;;;;;18.85;69.01;101806.94;5076492;28;20517;-55
2022/07/30 09:02:30;;;;;;;8.63;3.65;;;;;;;18.86;68.96;101805.81;5091844;28;20055;-52
2022/07/30 09:05:03;;;;;;;9.73;3.42;;;;;;;18.90;69.40;101813.19;5074353;28;20047;-53
2022/07/30 09:07:32;;;;;;;12.85;4.05;;;;;;;18.94;71.12;101813.41;5092848;28;20047;-52
2022/07/30 09:10:06;;;;;;;9.75;4.07;;;;;;;18.98;71.19;101832.94;5060367;28;20140;-55
2022/07/30 09:12:40;;;;;;;10.88;3.78;;;;;;;18.99;70.00;101821.63;5070946;28;20128;-53
2022/07/30 09:15:17;;;;;;;13.77;3.80;;;;;;;19.02;69.14;101814.66;5070044;28;20123;-55
2022/07/30 09:17:56;;;;;;;9.57;3.45;;;;;;;19.04;67.39;101813.25;5086675;28;20048;-57
2022/07/30 09:20:34;;;;;;;9.48;3.75;;;;;;;19.08;67.91;101802.44;5093964;28;20048;-54
2022/07/30 09:23:06;;;;;;;9.45;4.10;;;;;;;19.11;69.14;101807.34;5082471;28;20063;-57
2022/07/30 09:25:53;;;;;;;20.52;4.43;;;;;;;19.12;69.77;101807.06;5093586;28;20111;-55
2022/07/30 09:28:38;;;;;;;;;;;;;;;19.15;69.08;101811.97;5082454;28;20040;-52
2022/07/30 09:31:26;;;;;;;10.38;3.65;;;;;;;19.22;65.78;101819.88;5076673;28;19920;-51
2022/07/30 09:34:33;;;;;;;8.40;3.30;;;;;;;19.30;65.79;101818.34;5011315;28;20045;-55
2022/07/30 09:37:08;;;;;;;6.88;3.40;;;;;;;19.32;65.62;101822.44;5067045;28;20090;-56
2022/07/30 09:40:17;;;;;;;8.82;3.70;;;;;;;19.35;67.28;101819.06;5058044;28;20075;-50
2022/07/30 09:43:09;;;;;;;9.27;3.50;;;;;;;19.39;66.86;101816.53;5087010;28;20431;-52
2022/07/30 09:45:57;;;;;;;9.35;3.80;;;;;;;19.41;66.03;101822.59;5091385;28;20383;-52
2022/07/30 09:48:27;;;;;;;13.48;3.50;;;;;;;19.44;65.58;101824.72;5077279;28;20388;-55
2022/07/30 09:50:55;;;;;;;6.63;3.40;;;;;;;19.50;62.85;101820.75;5093175;28;20044;-55
2022/07/30 09:53:25;;;;;;;9.05;3.67;;;;;;;19.59;63.27;101818.91;5094615;28;20506;-53
2022/07/30 09:55:52;;;;;;;9.23;3.60;;;;;;;19.67;62.74;101816.56;5092090;28;20040;-52
2022/07/30 09:58:21;;;;;;;11.57;3.92;;;;;;;19.75;62.18;101815.91;5093103;28;20048;-54
2022/07/30 10:00:59;;;;;;;6.65;3.40;;;;;;;19.78;62.58;101816.09;5059027;28;20071;-54
2022/07/30 10:03:46;;;;;;;7.35;3.10;;;;;;;19.80;61.41;101813.03;5091405;28;20036;-53
2022/07/30 10:06:36;;;;;;;8.13;3.20;;;;;;;19.88;60.19;101809.56;5079454;28;20139;-55
2022/07/30 10:09:31;;;;;;;8.05;3.60;;;;;;;19.94;60.77;101808.34;5085786;28;20450;-54
2022/07/30 10:12:05;;;;;;;6.75;3.20;;;;;;;19.98;60.90;101803.81;5091463;28;20040;-55
2022/07/30 10:14:42;;;;;;;7.32;3.45;;;;;;;20.00;61.17;101801.56;5066726;28;20136;-54
2022/07/30 10:17:12;;;;;;;8.68;3.45;;;;;;;20.09;61.52;101793.38;5087575;28;20062;-54
2022/07/30 10:19:46;;;;;;;9.57;3.92;;;;;;;20.12;60.91;101797.47;5092175;28;20398;-54
2022/07/30 10:22:34;;;;;;;7.03;3.13;;;;;;;20.07;61.46;101783.75;5076491;28;20437;-56
2022/07/30 10:25:41;;;;;;;7.85;2.80;;;;;;;20.11;59.72;101790.31;4999487;28;20049;-50
2022/07/30 10:28:36;;;;;;;5.13;2.60;;;;;;;20.18;57.97;101791.50;4304910;28;10022213;-53
2022/07/30 10:31:06;;;;;;;8.27;3.00;;;;;;;20.21;58.56;101795.63;5057319;28;20040;-55
2022/07/30 10:33:54;;;;;;;13.35;3.25;;;;;;;20.31;57.76;101795.38;5086034;28;20085;-55
2022/07/30 10:36:23;;;;;;;7.20;2.45;;;;;;;20.39;57.67;101785.53;5087924;28;20510;-52
2022/07/30 10:38:51;;;;;;;5.07;2.55;;;;;;;20.41;58.28;101792.38;5082589;28;20482;-54
2022/07/30 10:41:37;;;;;;;6.97;2.70;;;;;;;20.46;57.14;101799.75;5087841;28;20663;-55
2022/07/30 10:44:32;;;;;;;6.85;2.97;;;;;;;20.50;56.67;101797.19;5082939;28;20067;-56
2022/07/30 10:47:05;;;;;;;8.38;2.40;;;;;;;20.55;56.28;101788.78;5082056;28;20052;-50
2022/07/30 10:49:36;;;;;;;9.25;2.67;;;;;;;20.57;56.14;101795.66;5085794;28;20044;-55
2022/07/30 10:52:08;;;;;;;6.07;2.45;;;;;;;20.58;56.13;101800.06;5087933;28;20087;-55
2022/07/30 10:54:44;;;;;;;5.63;2.30;;;;;;;20.63;56.36;101793.59;5089766;28;20055;-52
2022/07/30 10:57:14;;;;;;;6.05;2.38;;;;;;;20.63;56.38;101788.06;5072246;28;20041;-52
2022/07/30 10:59:58;;;;;;;9.43;2.72;;;;;;;20.70;56.44;101795.94;5083132;28;20048;-54
2022/07/30 11:02:28;;;;;;;3.85;2.58;;;;;;;20.76;55.74;101795.50;5089544;28;20050;-55
2022/07/30 11:05:16;;;;;;;5.25;2.30;;;;;;;20.81;56.21;101803.69;5077240;28;20040;-56
2022/07/30 11:07:45;;;;;;;6.10;2.50;;;;;;;20.88;55.98;101792.19;5083369;28;20407;-53
2022/07/30 11:10:39;;;;;;;4.43;2.50;;;;;;;21.04;55.51;101800.91;5071629;28;20087;-55
2022/07/30 11:13:10;;;;;;;5.30;2.72;;;;;;;21.09;54.69;101798.00;5083353;28;20043;-53
2022/07/30 11:15:55;;;;;;;8.88;2.83;;;;;;;21.08;55.50;101799.16;5089470;28;20078;-56
2022/07/30 11:18:23;;;;;;;4.78;2.22;;;;;;;21.12;54.75;101786.31;5076397;28;20064;-53
2022/07/30 11:21:17;;;;;;;6.03;2.50;;;;;;;21.20;55.36;101785.53;5069562;28;20399;-56
2022/07/30 11:23:48;;;;;;;6.18;3.10;;;;;;;21.30;55.12;101791.97;5089535;28;20182;-53
2022/07/30 11:26:55;;;;;;;7.13;2.55;;;;;;;21.38;53.43;101794.78;5088587;28;20044;-56
2022/07/30 11:29:39;;;;;;;7.00;2.97;;;;;;;21.36;53.70;101797.06;5030924;28;20060;-54
2022/07/30 11:32:32;;;;;;;4.75;2.53;;;;;;;21.42;53.86;101778.34;5088215;28;20044;-55
2022/07/30 11:35:22;;;;;;;7.60;2.40;;;;;;;21.53;54.24;101774.19;5089695;28;20498;-52
2022/07/30 11:38:18;;;;;;;7.93;3.00;;;;;;;21.63;53.48;101790.53;5083973;28;20075;-54
2022/07/30 11:40:48;;;;;;;8.15;3.00;;;;;;;21.63;53.67;101784.16;5089060;28;20069;-53
2022/07/30 11:43:24;;;;;;;6.30;2.72;;;;;;;21.62;54.13;101777.81;5079855;28;20071;-54
2022/07/30 11:46:14;;;;;;;7.50;2.75;;;;;;;21.61;54.29;101769.81;5089120;28;20047;-53
2022/07/30 11:49:07;;;;;;;8.60;2.63;;;;;;;21.70;54.61;101774.25;5088260;28;20032;-54
2022/07/30 11:51:40;;;;;;;7.93;2.88;;;;;;;21.72;53.60;101771.16;5087204;28;20044;-50
2022/07/30 11:54:11;;;;;;;6.43;2.40;;;;;;;21.75;53.97;101775.25;5086193;28;20037;-55
2022/07/30 11:56:59;;;;;;;5.00;2.38;;;;;;;21.77;54.12;101770.16;5083832;28;20131;-54